Time;durP1;ratioP1;P1;durP2;ratioP2;P2;SDS_P1;SDS_P2;PMS_P1;PMS_P2;Temp;Humidity;BMP_temperature;BMP_pressure;BME280_temperature;BME280_humidity;BME280_pressure;Samples;Min_cycle;Max_cycle;Signal;HPM_P1;HPM_P2
2021/06/08 00:00:21;;;;;;;12.50;5.50;;;16.30;99.90;;;;;;4980237;28;20066;-68
2021/06/08 00:02:51;;;;;;;13.43;6.45;;;16.30;99.90;;;;;;4976870;28;20146;-68
2021/06/08 00:05:18;;;;;;;12.23;6.30;;;16.30;99.90;;;;;;4995492;28;20057;-66
2021/06/08 00:07:43;;;;;;;16.58;6.15;;;16.30;99.90;;;;;;4980308;28;20031;-68
2021/06/08 00:13:31;;;;;;;10.40;5.80;;;16.30;99.90;;;;;;4979322;28;20153;-67
2021/06/08 00:15:57;;;;;;;12.63;7.10;;;16.30;99.90;;;;;;4983229;28;20062;-68
2021/06/08 00:18:23;;;;;;;13.45;6.28;;;16.30;99.90;;;;;;4997739;28;20035;-68
2021/06/08 00:20:49;;;;;;;14.30;6.35;;;16.20;99.90;;;;;;4978314;28;20034;-69
2021/06/08 00:23:14;;;;;;;9.02;5.28;;;16.20;99.90;;;;;;4975813;28;20031;-68
2021/06/08 00:25:40;;;;;;;12.38;5.88;;;16.20;99.90;;;;;;4992171;28;20046;-67
2021/06/08 00:28:08;;;;;;;11.75;5.72;;;16.10;99.90;;;;;;4979331;28;20027;-68
2021/06/08 00:30:34;;;;;;;9.95;6.15;;;16.10;99.90;;;;;;4986858;28;20034;-68
2021/06/08 00:32:59;;;;;;;9.55;5.15;;;16.10;99.90;;;;;;4980191;28;20458;-68
2021/06/08 00:35:27;;;;;;;10.27;5.00;;;16.10;99.90;;;;;;4994387;28;20118;-68
2021/06/08 00:37:53;;;;;;;12.95;5.93;;;16.10;99.90;;;;;;4975354;28;20085;-68
2021/06/08 00:40:19;;;;;;;10.27;6.28;;;16.00;99.90;;;;;;4979286;28;20038;-68
2021/06/08 00:42:46;;;;;;;13.73;5.57;;;16.10;99.90;;;;;;4986714;28;20043;-68
2021/06/08 00:45:12;;;;;;;10.98;5.50;;;16.10;99.90;;;;;;4980027;28;20469;-68
2021/06/08 00:47:38;;;;;;;12.60;5.68;;;16.00;99.90;;;;;;4998533;28;20031;-68
2021/06/08 00:50:04;;;;;;;13.30;6.22;;;16.00;99.90;;;;;;4980199;28;20039;-68
2021/06/08 00:52:30;;;;;;;10.95;5.75;;;16.10;99.90;;;;;;4976646;28;20032;-68
2021/06/08 00:54:55;;;;;;;9.77;5.05;;;16.00;99.90;;;;;;4979867;28;20121;-68
2021/06/08 00:57:21;;;;;;;9.10;5.25;;;16.00;99.90;;;;;;4977959;28;20038;-67
2021/06/08 00:59:47;;;;;;;11.70;5.75;;;15.90;99.90;;;;;;4987161;28;20042;-68
2021/06/08 01:02:15;;;;;;;10.88;4.93;;;15.90;99.90;;;;;;4979189;28;20031;-68
2021/06/08 01:04:41;;;;;;;9.85;5.28;;;15.90;99.90;;;;;;4978257;28;20054;-68
2021/06/08 01:07:07;;;;;;;9.60;5.53;;;15.80;99.90;;;;;;4994939;28;20023;-68
2021/06/08 01:09:33;;;;;;;7.55;5.03;;;15.90;99.90;;;;;;4978333;28;20034;-67
2021/06/08 01:11:58;;;;;;;14.65;5.32;;;15.80;99.90;;;;;;4978982;28;20050;-68
2021/06/08 01:14:24;;;;;;;12.45;5.03;;;15.80;99.90;;;;;;4979500;28;20122;-68
2021/06/08 01:16:49;;;;;;;8.18;4.63;;;15.70;99.90;;;;;;4979881;28;20033;-67
2021/06/08 01:19:16;;;;;;;9.30;5.03;;;15.70;99.90;;;;;;4978206;28;20034;-68
2021/06/08 01:21:42;;;;;;;9.68;4.93;;;15.60;99.90;;;;;;4979818;28;20047;-68
2021/06/08 01:24:10;;;;;;;6.13;3.88;;;15.60;99.90;;;;;;4985877;28;20527;-69
2021/06/08 01:26:35;;;;;;;9.25;4.18;;;15.60;99.90;;;;;;4978266;28;20043;-68
2021/06/08 01:29:03;;;;;;;7.38;4.07;;;15.60;99.90;;;;;;4987086;28;20039;-67
2021/06/08 01:31:31;;;;;;;10.68;5.47;;;15.70;99.90;;;;;;4970740;28;20046;-67
2021/06/08 01:33:57;;;;;;;9.88;4.60;;;15.70;99.90;;;;;;4992781;28;20069;-67
2021/06/08 01:36:24;;;;;;;6.88;4.28;;;15.70;99.90;;;;;;4995239;28;20038;-67
2021/06/08 01:38:51;;;;;;;11.73;4.43;;;15.70;99.90;;;;;;4975198;28;20042;-69
2021/06/08 01:41:23;;;;;;;9.40;3.92;;;15.70;99.90;;;;;;4979364;28;20127;-68
2021/06/08 01:43:50;;;;;;;7.78;4.30;;;15.70;99.90;;;;;;4993931;28;20049;-67
2021/06/08 01:46:17;;;;;;;6.90;3.80;;;15.70;99.90;;;;;;4979878;28;20340;-68
2021/06/08 01:48:43;;;;;;;8.52;3.85;;;15.60;99.90;;;;;;4996204;28;20047;-68
2021/06/08 01:51:24;;;;;;;8.73;3.97;;;15.60;99.90;;;;;;4978150;28;20046;-68
2021/06/08 01:54:09;;;;;;;6.35;3.67;;;15.60;99.90;;;;;;4973738;28;20526;-67
2021/06/08 01:56:39;;;;;;;6.85;3.88;;;15.70;99.90;;;;;;4976776;28;20054;-67
2021/06/08 01:59:32;;;;;;;8.32;3.75;;;15.70;99.90;;;;;;4994890;28;20093;-67
2021/06/08 02:02:15;;;;;;;8.13;4.05;;;15.60;99.90;;;;;;4977684;28;20383;-67
2021/06/08 02:04:46;;;;;;;9.98;3.88;;;15.60;99.90;;;;;;4977759;28;20123;-68
2021/06/08 02:07:20;;;;;;;7.70;4.55;;;15.60;99.90;;;;;;4978365;28;20035;-66
2021/06/08 02:10:19;;;;;;;6.97;3.92;;;15.60;99.90;;;;;;4990998;28;20027;-67
2021/06/08 02:12:53;;;;;;;7.13;4.30;;;15.60;99.90;;;;;;4992639;28;20046;-68
2021/06/08 02:15:22;;;;;;;10.70;4.20;;;15.60;99.90;;;;;;4982524;28;20027;-69
2021/06/08 02:17:50;;;;;;;7.38;4.07;;;15.40;99.90;;;;;;4981115;28;20042;-68
2021/06/08 02:20:22;;;;;;;8.50;3.78;;;15.60;99.90;;;;;;4982666;28;20638;-69
2021/06/08 02:22:53;;;;;;;6.68;4.00;;;15.50;99.90;;;;;;4981219;28;20478;-69
2021/06/08 02:25:19;;;;;;;;;;;15.40;99.90;;;;;;4998754;28;20515;-68
2021/06/08 02:27:45;;;;;;;6.50;3.25;;;15.40;99.90;;;;;;4981985;28;19914;-69
2021/06/08 02:30:12;;;;;;;6.32;3.63;;;15.30;99.90;;;;;;4997953;28;20034;-68
2021/06/08 02:32:39;;;;;;;8.85;3.53;;;15.30;99.90;;;;;;4983780;28;20102;-68
2021/06/08 02:35:06;;;;;;;10.35;4.15;;;15.20;99.90;;;;;;4982561;28;20041;-68
2021/06/08 02:37:33;;;;;;;7.70;3.78;;;15.20;99.90;;;;;;4987048;28;20043;-68
2021/06/08 02:40:00;;;;;;;7.28;3.55;;;15.20;99.90;;;;;;4980853;28;20058;-68
2021/06/08 02:42:25;;;;;;;6.82;4.15;;;15.20;99.90;;;;;;4982216;28;20038;-68
2021/06/08 02:44:53;;;;;;;9.73;4.15;;;15.10;99.90;;;;;;4982660;28;20141;-68
2021/06/08 02:47:20;;;;;;;5.50;3.40;;;15.10;99.90;;;;;;4983248;28;20519;-69
2021/06/08 02:49:47;;;;;;;5.22;3.47;;;15.10;99.90;;;;;;4997256;28;20039;-68
2021/06/08 02:52:16;;;;;;;5.72;3.10;;;15.00;99.90;;;;;;4980767;28;20035;-70
2021/06/08 02:54:42;;;;;;;6.68;3.45;;;15.00;99.90;;;;;;4982831;28;20031;-69
2021/06/08 02:57:09;;;;;;;7.05;4.13;;;15.10;99.90;;;;;;4981604;28;20487;-69
2021/06/08 02:59:37;;;;;;;7.65;4.03;;;15.10;99.90;;;;;;4982342;28;20061;-69
2021/06/08 03:02:09;;;;;;;6.38;3.58;;;15.10;99.90;;;;;;4980488;28;20110;-67
2021/06/08 03:04:45;;;;;;;7.85;3.17;;;15.00;99.90;;;;;;4993695;28;20105;-69
2021/06/08 03:07:12;;;;;;;4.80;3.05;;;15.10;99.90;;;;;;4975249;28;20050;-68
2021/06/08 03:09:47;;;;;;;7.28;3.00;;;15.00;99.90;;;;;;4977644;28;20557;-68
2021/06/08 03:12:15;;;;;;;6.57;3.05;;;15.00;99.90;;;;;;4979187;28;20031;-70
2021/06/08 03:14:45;;;;;;;6.95;3.67;;;15.00;99.90;;;;;;4981176;28;20027;-69
2021/06/08 03:17:13;;;;;;;5.82;3.42;;;14.90;99.90;;;;;;4978181;28;20030;-67
2021/06/08 03:19:42;;;;;;;7.10;3.35;;;14.90;99.90;;;;;;4970865;28;20058;-69
2021/06/08 03:22:12;;;;;;;8.57;3.60;;;14.80;99.90;;;;;;4973420;28;20117;-69
2021/06/08 03:24:40;;;;;;;7.10;3.28;;;14.80;99.90;;;;;;4994697;28;20035;-67
2021/06/08 03:27:07;;;;;;;5.18;3.38;;;14.70;99.90;;;;;;4980210;28;20023;-68
2021/06/08 03:29:35;;;;;;;6.05;3.28;;;14.70;99.90;;;;;;4982246;28;20065;-68
2021/06/08 03:32:02;;;;;;;5.65;3.50;;;14.70;99.90;;;;;;4981638;28;20034;-68
2021/06/08 03:34:29;;;;;;;6.53;3.65;;;14.70;99.90;;;;;;4980000;28;20039;-67
2021/06/08 03:36:56;;;;;;;6.75;3.30;;;14.80;99.90;;;;;;4981273;28;20043;-68
2021/06/08 03:39:25;;;;;;;6.88;3.28;;;14.80;99.90;;;;;;4974352;28;20031;-68
2021/06/08 03:41:52;;;;;;;5.88;2.90;;;14.90;99.90;;;;;;4977990;28;20054;-68
2021/06/08 03:44:19;;;;;;;7.03;3.83;;;14.70;99.90;;;;;;4977657;28;20038;-68
2021/06/08 03:46:49;;;;;;;9.07;4.47;;;14.80;99.90;;;;;;4993046;28;20058;-68
2021/06/08 03:49:17;;;;;;;7.70;4.00;;;14.70;99.90;;;;;;4977472;28;20053;-67
2021/06/08 03:51:42;;;;;;;9.88;4.07;;;14.70;99.90;;;;;;4977036;28;20042;-68
2021/06/08 03:54:11;;;;;;;7.88;3.97;;;14.70;99.90;;;;;;4995350;28;20039;-69
2021/06/08 03:56:42;;;;;;;7.35;4.00;;;14.70;99.90;;;;;;4991922;28;20034;-68
2021/06/08 03:59:10;;;;;;;6.93;3.55;;;14.60;99.90;;;;;;4977794;28;20150;-69
2021/06/08 04:01:37;;;;;;;7.80;3.83;;;14.60;99.90;;;;;;4980353;28;20093;-68
2021/06/08 04:04:05;;;;;;;6.30;3.30;;;14.60;99.90;;;;;;4981489;28;20027;-67
2021/06/08 04:06:31;;;;;;;10.07;3.67;;;14.60;99.90;;;;;;4979091;28;20035;-68
2021/06/08 04:08:57;;;;;;;9.15;4.38;;;14.60;99.90;;;;;;4980293;28;20411;-68
2021/06/08 04:11:22;;;;;;;7.35;3.47;;;14.60;99.90;;;;;;4978774;28;20038;-69
2021/06/08 04:13:54;;;;;;;7.30;3.70;;;14.50;99.90;;;;;;4994903;28;20038;-69
2021/06/08 04:16:19;;;;;;;8.98;4.50;;;14.70;99.90;;;;;;4980050;28;20106;-68
2021/06/08 04:18:45;;;;;;;7.63;3.70;;;14.60;99.90;;;;;;4979991;28;20062;-68
2021/06/08 04:21:11;;;;;;;9.80;4.10;;;14.70;99.90;;;;;;4980543;28;20035;-68
2021/06/08 04:23:37;;;;;;;10.80;3.63;;;14.70;99.90;;;;;;4978990;28;20046;-70
2021/06/08 04:26:03;;;;;;;10.10;4.18;;;14.70;99.90;;;;;;4981850;28;20034;-68
2021/06/08 04:28:29;;;;;;;8.07;3.58;;;14.70;99.90;;;;;;4979884;28;20045;-68
2021/06/08 04:30:56;;;;;;;5.95;3.78;;;14.70;99.90;;;;;;4984739;28;20042;-69
2021/06/08 04:33:27;;;;;;;7.90;3.53;;;14.70;99.90;;;;;;4980002;28;20033;-70
2021/06/08 04:35:52;;;;;;;5.50;3.67;;;14.70;99.90;;;;;;4979360;28;20045;-68
2021/06/08 04:38:19;;;;;;;8.68;3.47;;;14.80;99.90;;;;;;4979257;28;20039;-68
2021/06/08 04:40:46;;;;;;;6.63;3.65;;;14.70;99.90;;;;;;4978678;28;20859;-67
2021/06/08 04:43:13;;;;;;;10.07;3.47;;;14.80;99.90;;;;;;4978661;28;20030;-68
2021/06/08 04:45:39;;;;;;;7.15;3.90;;;14.80;99.90;;;;;;4982126;28;20031;-69
2021/06/08 04:48:05;;;;;;;12.13;3.42;;;14.80;99.90;;;;;;4981347;28;20027;-68
2021/06/08 04:50:30;;;;;;;8.65;3.20;;;14.80;99.90;;;;;;4989525;28;20089;-68
2021/06/08 04:52:56;;;;;;;8.13;3.80;;;14.90;99.90;;;;;;4976195;28;20042;-69
2021/06/08 04:55:24;;;;;;;7.45;3.35;;;14.80;99.90;;;;;;4965897;28;20058;-69
2021/06/08 04:57:52;;;;;;;7.22;3.45;;;14.90;99.90;;;;;;4990949;28;20050;-69
2021/06/08 05:00:24;;;;;;;10.52;3.30;;;15.00;99.90;;;;;;4978382;28;20034;-69
2021/06/08 05:02:57;;;;;;;7.53;3.45;;;14.90;99.90;;;;;;4988828;28;20042;-68
2021/06/08 05:05:30;;;;;;;12.30;3.70;;;15.00;99.90;;;;;;4976652;28;20034;-68
2021/06/08 05:08:17;;;;;;;6.18;3.03;;;15.00;99.90;;;;;;4963021;28;20031;-68
2021/06/08 05:11:14;;;;;;;7.70;3.10;;;15.10;99.90;;;;;;4962903;28;20407;-68
2021/06/08 05:13:46;;;;;;;5.28;2.90;;;15.10;99.90;;;;;;4967655;28;20126;-67
2021/06/08 05:16:12;;;;;;;5.13;2.60;;;15.20;99.90;;;;;;4982209;28;20030;-68
2021/06/08 05:18:39;;;;;;;7.60;3.25;;;15.20;99.90;;;;;;4967796;28;20046;-67
2021/06/08 05:21:08;;;;;;;6.25;2.42;;;15.30;99.90;;;;;;4982535;28;20058;-68
2021/06/08 05:23:35;;;;;;;5.43;3.00;;;15.40;99.90;;;;;;4966580;28;20093;-65
2021/06/08 05:26:01;;;;;;;7.75;2.72;;;15.60;99.90;;;;;;4962344;28;20027;-68
2021/06/08 05:28:27;;;;;;;4.63;2.58;;;15.60;99.90;;;;;;4967896;28;20038;-69
2021/06/08 05:30:53;;;;;;;4.43;2.25;;;15.80;99.90;;;;;;4969973;28;20035;-68
2021/06/08 05:33:24;;;;;;;3.60;2.13;;;16.00;99.90;;;;;;4964790;28;20057;-68
2021/06/08 05:35:55;;;;;;;7.45;2.42;;;16.40;99.90;;;;;;4964319;28;20375;-67
2021/06/08 05:38:40;;;;;;;;;;;16.70;99.90;;;;;;4965447;28;20683;-67
2021/06/08 05:41:08;;;;;;;3.22;1.83;;;17.00;99.90;;;;;;4966649;28;19926;-65
2021/06/08 05:43:34;;;;;;;3.97;2.35;;;17.40;99.90;;;;;;4963421;28;20030;-67
2021/06/08 05:46:00;;;;;;;3.22;1.85;;;17.70;99.90;;;;;;4965299;28;20035;-65
2021/06/08 05:48:26;;;;;;;4.90;2.70;;;18.00;99.90;;;;;;4965288;28;20043;-68
2021/06/08 05:50:57;;;;;;;3.25;1.90;;;18.30;99.90;;;;;;4968151;28;20049;-67
2021/06/08 05:53:23;;;;;;;4.50;1.98;;;18.50;99.90;;;;;;4967242;28;20880;-66
2021/06/08 05:55:50;;;;;;;2.97;1.70;;;18.60;99.90;;;;;;4958830;28;20097;-67
2021/06/08 05:58:21;;;;;;;4.43;2.10;;;18.80;99.90;;;;;;4964661;28;20030;-68
2021/06/08 06:00:46;;;;;;;;;;;19.20;99.90;;;;;;4966819;28;20835;-65
2021/06/08 06:03:13;;;;;;;5.32;1.77;;;19.30;99.90;;;;;;4971132;28;20008;-67
2021/06/08 06:05:40;;;;;;;5.30;1.70;;;19.40;99.90;;;;;;4967430;28;20046;-68
2021/06/08 06:08:06;;;;;;;3.45;1.95;;;19.60;99.90;;;;;;4968331;28;20087;-67
2021/06/08 06:10:32;;;;;;;2.97;1.67;;;19.80;99.90;;;;;;4965101;28;20689;-68
2021/06/08 06:13:00;;;;;;;3.88;1.60;;;20.10;99.70;;;;;;4966971;28;20038;-68
2021/06/08 06:15:28;;;;;;;4.57;1.50;;;20.30;98.50;;;;;;4969844;28;20094;-68
2021/06/08 06:17:54;;;;;;;2.97;1.00;;;20.60;98.30;;;;;;4963232;28;20054;-69
2021/06/08 06:20:20;;;;;;;2.30;1.13;;;20.90;98.00;;;;;;4967560;28;20090;-69
2021/06/08 06:22:46;;;;;;;4.75;1.05;;;21.50;95.70;;;;;;4966514;28;20030;-69
2021/06/08 06:25:13;;;;;;;2.10;0.90;;;22.00;94.20;;;;;;4968970;28;20097;-69
2021/06/08 06:27:41;;;;;;;2.50;0.80;;;22.50;91.00;;;;;;4968925;28;20042;-70
2021/06/08 06:30:13;;;;;;;4.15;0.60;;;23.20;89.90;;;;;;4969613;28;20125;-67
2021/06/08 06:32:38;;;;;;;4.57;0.63;;;23.90;85.50;;;;;;4967461;28;20038;-68
2021/06/08 06:35:07;;;;;;;2.90;1.02;;;24.40;80.10;;;;;;4966479;28;20483;-67
2021/06/08 06:37:34;;;;;;;3.60;1.38;;;24.90;77.90;;;;;;4967620;28;20154;-67
2021/06/08 06:40:00;;;;;;;3.53;1.38;;;25.20;80.80;;;;;;4965279;28;20054;-67
2021/06/08 06:42:33;;;;;;;3.00;1.13;;;26.20;76.40;;;;;;4967202;28;20133;-67
2021/06/08 06:45:03;;;;;;;3.85;1.20;;;27.20;69.70;;;;;;4970746;28;20093;-70
2021/06/08 06:47:29;;;;;;;3.38;1.73;;;28.50;64.00;;;;;;4962484;28;20442;-67
2021/06/08 06:49:55;;;;;;;3.38;1.27;;;29.50;59.90;;;;;;4966371;28;20038;-68
2021/06/08 06:52:20;;;;;;;5.15;1.80;;;30.40;56.00;;;;;;4969377;28;20372;-68
2021/06/08 06:54:46;;;;;;;5.28;1.63;;;31.10;51.80;;;;;;4970050;28;20042;-66
2021/06/08 06:57:12;;;;;;;5.82;1.73;;;31.20;53.30;;;;;;4971613;28;20118;-68
2021/06/08 06:59:39;;;;;;;6.03;1.63;;;31.70;52.00;;;;;;4976134;28;20118;-68
2021/06/08 07:02:05;;;;;;;2.75;1.70;;;32.30;52.40;;;;;;4972406;28;20035;-71
2021/06/08 07:04:32;;;;;;;4.30;2.10;;;32.90;48.80;;;;;;4973807;28;20034;-69
2021/06/08 07:06:58;;;;;;;5.82;2.17;;;33.10;48.10;;;;;;4970067;28;20041;-69
2021/06/08 07:09:25;;;;;;;4.63;2.03;;;33.50;47.90;;;;;;4968949;28;20035;-68
2021/06/08 07:11:53;;;;;;;4.88;1.80;;;33.90;45.30;;;;;;4970969;28;20039;-67
2021/06/08 07:14:20;;;;;;;6.00;1.83;;;33.80;44.70;;;;;;4968735;28;20624;-69
2021/06/08 07:16:48;;;;;;;5.13;1.73;;;34.10;43.40;;;;;;4972598;28;20049;-69
2021/06/08 07:19:14;;;;;;;3.60;1.35;;;34.00;42.60;;;;;;4970721;28;20039;-68
2021/06/08 07:21:42;;;;;;;3.70;1.33;;;34.60;41.10;;;;;;4969457;28;20053;-67
2021/06/08 07:24:09;;;;;;;2.05;1.10;;;34.90;39.80;;;;;;4969786;28;20058;-66
2021/06/08 07:26:36;;;;;;;10.30;1.38;;;34.80;39.50;;;;;;4970237;28;20062;-67
2021/06/08 07:29:02;;;;;;;3.55;1.20;;;34.80;39.40;;;;;;4966772;28;20122;-68
2021/06/08 07:31:56;;;;;;;3.15;1.20;;;34.00;40.50;;;;;;4964477;28;20042;-69
2021/06/08 07:34:36;;;;;;;3.53;1.20;;;33.90;41.10;;;;;;4966938;28;20035;-71
2021/06/08 07:37:03;;;;;;;1.75;1.10;;;33.80;41.30;;;;;;4965560;28;20276;-68
2021/06/08 07:39:36;;;;;;;1.05;0.80;;;34.40;40.50;;;;;;4972658;28;20034;-68
2021/06/08 07:42:19;;;;;;;2.83;1.10;;;34.40;38.10;;;;;;4968637;28;20042;-68
2021/06/08 07:44:51;;;;;;;2.88;1.00;;;33.80;37.90;;;;;;4967303;28;20038;-70
2021/06/08 07:47:19;;;;;;;1.95;0.88;;;33.10;40.70;;;;;;4965494;28;20058;-70
2021/06/08 07:49:49;;;;;;;3.45;1.10;;;33.20;38.60;;;;;;4964719;28;20403;-68
2021/06/08 07:52:16;;;;;;;1.50;1.00;;;33.70;39.80;;;;;;4963815;28;20601;-69
2021/06/08 07:54:42;;;;;;;4.20;1.38;;;34.40;38.20;;;;;;4969562;28;20050;-70
2021/06/08 07:57:08;;;;;;;6.80;1.15;;;34.20;38.00;;;;;;4974005;28;20038;-68
2021/06/08 07:59:34;;;;;;;2.35;1.00;;;34.50;38.40;;;;;;4967193;28;20034;-69
2021/06/08 08:02:00;;;;;;;5.05;1.52;;;34.00;38.30;;;;;;4970463;28;20522;-71
2021/06/08 08:04:34;;;;;;;4.00;1.17;;;34.20;39.90;;;;;;4966869;28;20049;-70
2021/06/08 08:07:00;;;;;;;2.38;1.50;;;34.20;39.50;;;;;;4973696;28;20137;-70
2021/06/08 08:09:26;;;;;;;1.30;1.10;;;34.30;40.00;;;;;;4965998;28;20519;-68
2021/06/08 08:11:53;;;;;;;4.22;1.10;;;35.60;37.10;;;;;;4962690;28;20035;-69
2021/06/08 08:14:22;;;;;;;2.03;1.23;;;35.30;37.30;;;;;;4970631;28;20065;-68
2021/06/08 08:16:48;;;;;;;1.73;0.68;;;34.70;37.80;;;;;;4968094;28;20482;-69
2021/06/08 08:19:19;;;;;;;1.35;0.90;;;34.80;36.70;;;;;;4969869;28;20046;-68
2021/06/08 08:21:45;;;;;;;2.08;1.00;;;34.70;36.70;;;;;;4968661;28;20410;-70
2021/06/08 08:24:11;;;;;;;1.75;0.90;;;34.40;36.90;;;;;;4967398;28;20035;-68
2021/06/08 08:26:38;;;;;;;1.40;0.70;;;34.30;38.00;;;;;;4965136;28;20116;-67
2021/06/08 08:29:04;;;;;;;1.65;0.70;;;33.60;37.80;;;;;;4966738;28;20469;-69
2021/06/08 08:31:31;;;;;;;2.92;0.90;;;33.90;38.00;;;;;;4968016;28;20035;-71
2021/06/08 08:33:58;;;;;;;1.27;0.50;;;34.00;36.60;;;;;;4965306;28;20446;-69
2021/06/08 08:36:28;;;;;;;6.18;0.90;;;34.20;36.20;;;;;;4965637;28;20539;-68
2021/06/08 08:38:53;;;;;;;1.65;0.80;;;33.60;36.70;;;;;;4962470;28;20035;-70
2021/06/08 08:41:20;;;;;;;2.22;1.27;;;33.90;36.60;;;;;;4967923;28;20510;-69
2021/06/08 08:43:48;;;;;;;2.63;0.75;;;33.30;38.30;;;;;;4967254;28;20420;-70
2021/06/08 08:46:14;;;;;;;1.23;0.82;;;33.10;37.00;;;;;;4967640;28;20044;-70
2021/06/08 08:48:42;;;;;;;4.13;0.90;;;33.10;37.00;;;;;;4969009;28;20081;-70
2021/06/08 08:51:11;;;;;;;2.38;0.70;;;32.60;39.00;;;;;;4968197;28;20537;-69
2021/06/08 08:53:37;;;;;;;;;;;32.90;39.20;;;;;;4967869;28;20077;-69
2021/06/08 08:56:03;;;;;;;2.97;0.90;;;32.30;39.50;;;;;;4987147;28;19918;-70
2021/06/08 08:58:29;;;;;;;5.18;1.10;;;31.90;40.00;;;;;;4970800;28;20490;-70
2021/06/08 09:00:59;;;;;;;3.85;0.73;;;32.00;38.80;;;;;;4966490;28;20043;-68
2021/06/08 09:03:25;;;;;;;;;;;31.60;39.30;;;;;;4964447;28;20039;-70
2021/06/08 09:05:55;;;;;;;2.70;1.08;;;31.20;40.50;;;;;;4968098;28;19925;-69
2021/06/08 09:08:21;;;;;;;0.98;0.50;;;31.10;40.20;;;;;;4966783;28;20038;-68
2021/06/08 09:10:47;;;;;;;2.28;0.63;;;30.40;41.60;;;;;;4968913;28;20404;-69
2021/06/08 09:13:13;;;;;;;2.25;0.43;;;30.60;42.70;;;;;;4961864;28;20039;-70
2021/06/08 09:15:39;;;;;;;1.67;0.47;;;30.60;40.70;;;;;;4963021;28;20434;-69
2021/06/08 09:18:04;;;;;;;3.25;0.80;;;30.30;41.10;;;;;;4968404;28;20529;-69
2021/06/08 09:20:31;;;;;;;1.13;0.40;;;30.20;42.10;;;;;;4967307;28;20411;-69
2021/06/08 09:23:01;;;;;;;1.13;0.30;;;29.90;41.50;;;;;;4968640;28;20138;-69
2021/06/08 09:25:40;;;;;;;1.55;0.65;;;29.70;41.80;;;;;;4968751;28;20042;-69
2021/06/08 09:28:31;;;;;;;1.17;0.40;;;29.50;42.60;;;;;;4966434;28;20034;-68
2021/06/08 09:31:13;;;;;;;1.95;0.25;;;29.40;42.00;;;;;;4962746;28;20610;-69
2021/06/08 09:33:48;;;;;;;1.23;0.30;;;29.00;44.10;;;;;;4985447;28;20042;-69
2021/06/08 09:36:19;;;;;;;1.10;0.30;;;28.90;42.50;;;;;;4967897;28;20042;-68
2021/06/08 09:39:02;;;;;;;2.00;0.20;;;28.90;43.10;;;;;;4966353;28;20031;-69
2021/06/08 09:41:44;;;;;;;4.00;0.70;;;28.80;44.20;;;;;;4969023;28;20069;-65
2021/06/08 09:44:15;;;;;;;0.63;0.38;;;28.70;43.00;;;;;;4969302;28;20042;-68
2021/06/08 09:46:47;;;;;;;1.10;0.40;;;28.60;43.50;;;;;;4962924;28;20045;-68
2021/06/08 09:49:15;;;;;;;1.35;0.52;;;28.50;44.30;;;;;;4964243;28;20049;-68
2021/06/08 09:51:59;;;;;;;1.90;0.47;;;28.50;44.00;;;;;;4963798;28;20085;-70
2021/06/08 09:54:25;;;;;;;1.45;0.30;;;28.40;44.20;;;;;;4959215;28;20131;-68
2021/06/08 09:57:10;;;;;;;1.33;0.65;;;28.30;44.40;;;;;;4970513;28;20509;-69
2021/06/08 09:59:55;;;;;;;2.40;0.75;;;28.30;44.20;;;;;;4963620;28;20073;-69
2021/06/08 10:02:34;;;;;;;1.65;0.40;;;28.30;45.00;;;;;;4963332;28;20047;-67
2021/06/08 10:05:27;;;;;;;5.18;0.50;;;28.30;45.40;;;;;;4963908;28;20034;-69
2021/06/08 10:08:00;;;;;;;3.78;0.55;;;28.40;46.00;;;;;;4961900;28;20026;-69
2021/06/08 10:10:45;;;;;;;1.95;0.20;;;28.50;46.30;;;;;;4958504;28;20418;-66
2021/06/08 10:13:12;;;;;;;1.52;0.30;;;28.60;45.20;;;;;;4963283;28;20094;-67
2021/06/08 10:16:00;;;;;;;2.42;0.30;;;28.50;43.10;;;;;;4966971;28;20376;-68
2021/06/08 10:18:46;;;;;;;1.50;0.40;;;28.40;43.90;;;;;;4963144;28;20034;-69
2021/06/08 10:21:12;;;;;;;1.42;0.32;;;28.40;44.00;;;;;;4972275;28;20097;-67
2021/06/08 10:23:38;;;;;;;2.95;0.68;;;28.40;43.30;;;;;;4973840;28;20035;-68
2021/06/08 10:26:13;;;;;;;0.75;0.30;;;28.40;43.20;;;;;;4969550;28;20443;-68
2021/06/08 10:28:39;;;;;;;1.67;0.40;;;28.30;43.90;;;;;;4967144;28;20208;-69
2021/06/08 10:31:06;;;;;;;3.03;0.73;;;28.40;42.50;;;;;;4971161;28;20030;-69
2021/06/08 10:33:33;;;;;;;1.27;0.47;;;28.30;43.80;;;;;;4973620;28;20034;-67
2021/06/08 10:35:58;;;;;;;1.30;0.40;;;28.30;44.40;;;;;;4971744;28;20085;-68
2021/06/08 10:38:25;;;;;;;1.25;0.50;;;28.30;44.40;;;;;;4971008;28;20053;-67
2021/06/08 10:40:54;;;;;;;7.53;0.75;;;28.40;44.40;;;;;;4969217;28;20475;-69
2021/06/08 10:43:25;;;;;;;0.40;0.30;;;28.30;43.60;;;;;;4971455;28;20045;-69
2021/06/08 10:45:55;;;;;;;2.15;0.50;;;28.40;44.00;;;;;;4967570;28;20027;-67
2021/06/08 10:48:26;;;;;;;1.13;0.20;;;28.40;43.00;;;;;;4959819;28;20042;-67
2021/06/08 10:51:12;;;;;;;1.38;0.52;;;28.40;43.70;;;;;;4982994;28;20062;-69
2021/06/08 10:53:42;;;;;;;0.55;0.30;;;28.30;44.10;;;;;;4969126;28;20491;-68
2021/06/08 10:56:30;;;;;;;1.58;0.85;;;28.20;44.50;;;;;;4959151;28;20092;-67
2021/06/08 10:58:58;;;;;;;1.40;0.25;;;28.10;45.20;;;;;;4970331;28;20038;-69
2021/06/08 11:01:30;;;;;;;2.38;0.50;;;28.00;46.00;;;;;;4962411;28;20132;-66
2021/06/08 11:03:56;;;;;;;2.50;0.77;;;28.10;43.90;;;;;;4971012;28;20047;-67
2021/06/08 11:06:38;;;;;;;2.05;0.45;;;28.10;45.50;;;;;;4965757;28;20042;-69
2021/06/08 11:09:13;;;;;;;1.50;0.63;;;28.10;45.60;;;;;;4970682;28;20043;-67
2021/06/08 11:11:58;;;;;;;1.85;0.70;;;28.10;45.20;;;;;;4961808;28;20047;-67
2021/06/08 11:14:29;;;;;;;1.65;0.40;;;28.10;45.10;;;;;;4971068;28;20046;-69
2021/06/08 11:17:05;;;;;;;0.73;0.20;;;28.10;45.90;;;;;;4968719;28;20481;-68
2021/06/08 11:19:51;;;;;;;6.60;0.57;;;28.20;46.70;;;;;;4968395;28;20038;-70
2021/06/08 11:22:38;;;;;;;2.65;0.40;;;28.20;46.10;;;;;;4961613;28;20089;-69
2021/06/08 11:25:06;;;;;;;1.42;0.40;;;28.20;46.70;;;;;;4961623;28;20128;-69
2021/06/08 11:28:04;;;;;;;1.05;0.40;;;28.30;46.30;;;;;;4966899;28;20118;-69
2021/06/08 11:30:32;;;;;;;1.60;0.60;;;28.20;45.90;;;;;;4967247;28;20731;-67
2021/06/08 11:33:00;;;;;;;1.60;0.43;;;28.10;45.10;;;;;;4969258;28;20047;-67
2021/06/08 11:35:33;;;;;;;0.40;0.30;;;28.10;45.80;;;;;;4967255;28;20687;-70
2021/06/08 11:38:11;;;;;;;2.65;0.40;;;28.00;45.40;;;;;;4971087;28;20034;-68
2021/06/08 11:40:40;;;;;;;0.93;0.30;;;28.00;47.00;;;;;;4969679;28;20068;-67
2021/06/08 11:43:27;;;;;;;2.72;0.60;;;27.90;46.10;;;;;;4967010;28;20154;-68
2021/06/08 11:46:17;;;;;;;1.58;0.40;;;27.90;44.80;;;;;;4961999;28;20045;-67
2021/06/08 11:48:48;;;;;;;1.23;0.30;;;27.80;45.50;;;;;;4964881;28;20443;-69
2021/06/08 11:51:22;;;;;;;1.73;0.70;;;27.70;46.90;;;;;;4970852;28;20042;-69
2021/06/08 11:54:13;;;;;;;1.40;0.47;;;27.70;46.50;;;;;;4968625;28;20038;-67
2021/06/08 11:56:50;;;;;;;1.45;0.52;;;27.60;47.10;;;;;;4961028;28;20034;-67
2021/06/08 11:59:19;;;;;;;0.73;0.43;;;27.70;47.20;;;;;;4963570;28;20105;-67
2021/06/08 12:01:48;;;;;;;1.20;0.70;;;27.50;47.40;;;;;;4967907;28;20096;-69
2021/06/08 12:04:14;;;;;;;0.70;0.50;;;27.50;48.10;;;;;;4981434;28;20046;-68
2021/06/08 12:07:05;;;;;;;0.75;0.40;;;27.50;47.90;;;;;;4970397;28;20043;-68
2021/06/08 12:09:33;;;;;;;1.98;0.47;;;27.50;47.50;;;;;;4971036;28;20038;-67
2021/06/08 12:12:11;;;;;;;1.92;0.45;;;27.50;48.60;;;;;;4970027;28;20045;-67
2021/06/08 12:14:49;;;;;;;3.25;0.88;;;27.40;48.80;;;;;;4969260;28;20050;-67
2021/06/08 12:17:15;;;;;;;1.58;0.70;;;27.30;47.40;;;;;;4964535;28;20097;-67
2021/06/08 12:19:42;;;;;;;2.17;0.90;;;27.30;48.50;;;;;;4965071;28;20042;-70
2021/06/08 12:22:29;;;;;;;2.45;0.80;;;27.40;47.00;;;;;;4967295;28;20038;-65
2021/06/08 12:25:06;;;;;;;1.83;0.68;;;27.40;47.60;;;;;;4967878;28;20038;-66
2021/06/08 12:27:36;;;;;;;4.78;1.27;;;27.40;47.80;;;;;;4965031;28;20046;-69
2021/06/08 12:30:03;;;;;;;1.48;0.70;;;27.30;48.50;;;;;;4967596;28;20529;-69
2021/06/08 12:32:29;;;;;;;2.72;0.88;;;27.30;48.20;;;;;;4967242;28;20575;-68
2021/06/08 12:34:55;;;;;;;1.73;0.85;;;27.40;47.50;;;;;;4962893;28;20036;-68
2021/06/08 12:37:25;;;;;;;2.67;0.52;;;27.30;47.30;;;;;;4964324;28;20038;-66
2021/06/08 12:39:53;;;;;;;2.75;0.82;;;27.20;47.30;;;;;;4966485;28;21542;-69
2021/06/08 12:42:19;;;;;;;5.20;0.80;;;27.00;48.00;;;;;;4963255;28;20044;-69
2021/06/08 12:44:47;;;;;;;0.90;0.50;;;27.00;48.10;;;;;;4965260;28;20173;-65
2021/06/08 12:47:22;;;;;;;1.10;0.40;;;27.00;48.70;;;;;;4968808;28;20114;-68
2021/06/08 12:49:48;;;;;;;7.60;0.75;;;27.10;49.20;;;;;;4978637;28;20113;-66
2021/06/08 12:52:20;;;;;;;0.80;0.65;;;27.10;48.80;;;;;;4961757;28;20045;-68
2021/06/08 12:54:49;;;;;;;0.85;0.70;;;27.20;48.60;;;;;;4966705;28;20050;-70
2021/06/08 12:57:31;;;;;;;2.00;0.70;;;27.20;48.30;;;;;;4963900;28;20118;-69
2021/06/08 13:00:15;;;;;;;7.32;0.80;;;27.10;47.80;;;;;;4969750;28;21415;-69
2021/06/08 13:02:41;;;;;;;3.22;0.68;;;27.10;47.80;;;;;;4961590;28;20042;-68
2021/06/08 13:05:09;;;;;;;1.55;0.68;;;27.10;48.10;;;;;;4968684;28;20030;-68